Time;durP1;ratioP1;P1;durP2;ratioP2;P2;SDS_P1;SDS_P2;PMS_P1;PMS_P2;Temp;Humidity;BMP_temperature;BMP_pressure;BME280_temperature;BME280_humidity;BME280_pressure;Samples;Min_cycle;Max_cycle;Signal;HPM_P1;HPM_P2
2022/07/22 00:00:31;;;;;;;1999.90;999.90;;;19.00;99.90;;;;;;5053952;28;20051;-73
2022/07/22 00:02:57;;;;;;;1999.90;999.90;;;19.00;99.90;;;;;;5041329;28;20035;-73
2022/07/22 00:05:22;;;;;;;1999.90;999.90;;;19.00;99.90;;;;;;5043102;28;20503;-73
2022/07/22 00:07:48;;;;;;;1999.90;999.90;;;18.90;99.90;;;;;;5052962;28;20041;-73
2022/07/22 00:10:14;;;;;;;1999.90;999.90;;;18.90;99.90;;;;;;5046132;28;20056;-73
2022/07/22 00:12:39;;;;;;;1999.90;999.90;;;18.90;99.90;;;;;;5053566;28;20506;-73
2022/07/22 00:15:06;;;;;;;1999.90;999.90;;;18.90;99.90;;;;;;5045303;28;20104;-73
2022/07/22 00:17:32;;;;;;;1999.90;999.90;;;19.00;99.90;;;;;;5050219;28;20041;-73
2022/07/22 00:19:57;;;;;;;1999.90;999.90;;;18.90;99.90;;;;;;5053483;28;20115;-73
2022/07/22 00:22:23;;;;;;;1999.90;999.90;;;18.90;99.90;;;;;;5053508;28;20387;-73
2022/07/22 00:24:49;;;;;;;1999.90;999.90;;;18.90;99.90;;;;;;5053118;28;20510;-73
2022/07/22 00:27:15;;;;;;;1999.90;999.90;;;19.00;99.90;;;;;;5040111;28;20108;-73
2022/07/22 00:29:40;;;;;;;1999.90;999.90;;;18.90;99.90;;;;;;5053131;28;20105;-73
2022/07/22 00:32:06;;;;;;;1999.90;999.90;;;18.90;99.90;;;;;;5039703;28;20109;-73
2022/07/22 00:34:32;;;;;;;1999.90;999.90;;;18.90;99.90;;;;;;5053026;28;20448;-73
2022/07/22 00:36:58;;;;;;;1999.90;999.90;;;18.80;99.90;;;;;;5053398;28;20029;-73
2022/07/22 00:39:23;;;;;;;1999.90;999.90;;;18.80;99.90;;;;;;5048917;28;20063;-73
2022/07/22 00:41:49;;;;;;;1999.90;999.90;;;18.70;99.90;;;;;;5053086;28;20108;-73
2022/07/22 00:44:15;;;;;;;1999.90;999.90;;;18.70;99.90;;;;;;5049473;28;20033;-74
2022/07/22 00:46:41;;;;;;;1999.90;999.90;;;18.80;99.90;;;;;;5053174;28;20418;-73
2022/07/22 00:49:08;;;;;;;1999.90;999.90;;;18.70;99.90;;;;;;5053319;28;20064;-73
2022/07/22 00:51:37;;;;;;;1999.90;999.90;;;18.70;99.90;;;;;;5037693;28;20025;-73
2022/07/22 00:54:03;;;;;;;1999.90;999.90;;;18.60;99.90;;;;;;5053075;28;20035;-73
2022/07/22 00:56:30;;;;;;;1999.90;999.90;;;18.60;99.90;;;;;;5045125;28;20018;-73
2022/07/22 00:58:57;;;;;;;1999.90;999.90;;;18.60;99.90;;;;;;5023139;28;20025;-73
2022/07/22 01:01:23;;;;;;;1999.90;999.90;;;18.60;99.90;;;;;;5046975;28;20024;-73
2022/07/22 01:03:48;;;;;;;1999.90;999.90;;;18.60;99.90;;;;;;5037240;28;20104;-73
2022/07/22 01:06:14;;;;;;;1999.90;999.90;;;18.50;99.90;;;;;;5048347;28;20028;-73
2022/07/22 01:08:41;;;;;;;1999.90;999.90;;;18.50;99.90;;;;;;5048194;28;20120;-73
2022/07/22 01:11:15;;;;;;;1999.90;999.90;;;18.40;99.90;;;;;;5049619;28;20391;-73
2022/07/22 01:13:41;;;;;;;1999.90;999.90;;;18.40;99.90;;;;;;5052955;28;20029;-73
2022/07/22 01:16:08;;;;;;;1999.90;999.90;;;18.40;99.90;;;;;;5039832;28;20029;-73
2022/07/22 01:18:35;;;;;;;1999.90;999.90;;;18.40;99.90;;;;;;5052395;28;20036;-73
2022/07/22 01:21:01;;;;;;;1999.90;999.90;;;18.30;99.90;;;;;;5052640;28;20025;-73
2022/07/22 01:23:27;;;;;;;1999.90;999.90;;;18.30;99.90;;;;;;5051482;28;20511;-73
2022/07/22 01:25:52;;;;;;;1999.90;999.90;;;18.30;99.90;;;;;;5052809;28;20063;-73
2022/07/22 01:28:18;;;;;;;1999.90;999.90;;;18.20;99.90;;;;;;5052642;28;20032;-73
2022/07/22 01:30:44;;;;;;;1999.90;999.90;;;18.20;99.90;;;;;;5052570;28;20021;-73
2022/07/22 01:33:10;;;;;;;1999.90;999.90;;;18.20;99.90;;;;;;5052465;28;20024;-73
2022/07/22 01:35:35;;;;;;;1999.90;999.90;;;18.10;99.90;;;;;;5052871;28;20079;-73
2022/07/22 01:38:01;;;;;;;1999.90;999.90;;;18.20;99.90;;;;;;5050017;28;20029;-73
2022/07/22 01:40:27;;;;;;;1999.90;999.90;;;18.20;99.90;;;;;;5050080;28;20025;-73
2022/07/22 01:42:52;;;;;;;1999.90;999.90;;;18.20;99.90;;;;;;5049116;28;20029;-73
2022/07/22 01:45:18;;;;;;;1999.90;999.90;;;18.20;99.90;;;;;;5050304;28;20056;-73
2022/07/22 01:47:44;;;;;;;1999.90;999.90;;;18.20;99.90;;;;;;5052555;28;20484;-73
2022/07/22 01:50:12;;;;;;;1999.90;999.90;;;18.20;99.90;;;;;;5052465;28;20095;-73
2022/07/22 01:52:39;;;;;;;1999.90;999.90;;;18.20;99.90;;;;;;5044125;28;20042;-73
2022/07/22 01:55:08;;;;;;;1999.90;999.90;;;18.20;99.90;;;;;;5051981;28;20104;-73
2022/07/22 01:57:36;;;;;;;1999.90;999.90;;;18.10;99.90;;;;;;5027532;28;20384;-73
2022/07/22 02:00:05;;;;;;;1999.90;999.90;;;18.10;99.90;;;;;;5051514;28;20496;-73
2022/07/22 02:02:31;;;;;;;1999.90;999.90;;;18.10;99.90;;;;;;5039771;28;20069;-73
2022/07/22 02:04:56;;;;;;;1999.90;999.90;;;18.10;99.90;;;;;;5041684;28;20480;-74
2022/07/22 02:07:24;;;;;;;1999.90;999.90;;;18.10;99.90;;;;;;5052340;28;20496;-73
2022/07/22 02:09:49;;;;;;;1999.90;999.90;;;18.10;99.90;;;;;;5044673;28;20107;-73
2022/07/22 02:12:15;;;;;;;1999.90;999.90;;;18.00;99.90;;;;;;5052252;28;20441;-73
2022/07/22 02:14:41;;;;;;;1999.90;999.90;;;18.00;99.90;;;;;;5046928;28;20032;-73
2022/07/22 02:17:06;;;;;;;1999.90;999.90;;;17.90;99.90;;;;;;5045280;28;20021;-73
2022/07/22 02:19:32;;;;;;;1999.90;999.90;;;17.90;99.90;;;;;;5052016;28;20434;-73
2022/07/22 02:22:00;;;;;;;1999.90;999.90;;;17.90;99.90;;;;;;5039101;28;20025;-73
2022/07/22 02:24:26;;;;;;;1999.90;999.90;;;17.90;99.90;;;;;;5025177;28;20064;-73
2022/07/22 02:26:51;;;;;;;1999.90;999.90;;;17.90;99.90;;;;;;5052244;28;20021;-73
2022/07/22 02:29:17;;;;;;;1999.90;999.90;;;17.90;99.90;;;;;;5052022;28;20060;-73
2022/07/22 02:31:43;;;;;;;1999.90;999.90;;;17.90;99.90;;;;;;5053899;28;20028;-74
2022/07/22 02:34:09;;;;;;;1999.90;999.90;;;17.90;99.90;;;;;;5055385;28;20082;-73
2022/07/22 02:36:34;;;;;;;1999.90;999.90;;;17.90;99.90;;;;;;5055915;28;20028;-73
2022/07/22 02:39:00;;;;;;;1999.90;999.90;;;17.80;99.90;;;;;;5050793;28;20071;-73
2022/07/22 02:41:25;;;;;;;1999.90;999.90;;;17.90;99.90;;;;;;5055414;28;20021;-73
2022/07/22 02:43:53;;;;;;;1999.90;999.90;;;17.90;99.90;;;;;;5048919;28;20036;-73
2022/07/22 02:46:21;;;;;;;1999.90;999.90;;;17.80;99.90;;;;;;5048773;28;20032;-73
2022/07/22 02:48:46;;;;;;;1999.90;999.90;;;17.80;99.90;;;;;;5028912;28;20056;-73
2022/07/22 02:51:12;;;;;;;1999.90;999.90;;;17.80;99.90;;;;;;5047407;28;20142;-73
2022/07/22 02:53:38;;;;;;;1999.90;999.90;;;17.70;99.90;;;;;;5028336;28;20488;-73
2022/07/22 02:56:03;;;;;;;1999.90;999.90;;;17.70;99.90;;;;;;5054882;28;20096;-73
2022/07/22 02:58:29;;;;;;;1999.90;999.90;;;17.70;99.90;;;;;;5029368;28;20025;-73
2022/07/22 03:00:55;;;;;;;1999.90;999.90;;;17.70;99.90;;;;;;5055265;28;20025;-73
2022/07/22 03:03:20;;;;;;;1999.90;999.90;;;17.70;99.90;;;;;;5040601;28;20108;-73
2022/07/22 03:05:46;;;;;;;1999.90;999.90;;;17.70;99.90;;;;;;5046973;28;20052;-73
2022/07/22 03:08:12;;;;;;;1999.90;999.90;;;17.70;99.90;;;;;;5054686;28;20025;-74
2022/07/22 03:10:38;;;;;;;1999.90;999.90;;;17.70;99.90;;;;;;5048894;28;20036;-73
2022/07/22 03:13:03;;;;;;;1999.90;999.90;;;17.60;99.90;;;;;;5054704;28;20518;-73
2022/07/22 03:15:29;;;;;;;1999.90;999.90;;;17.70;99.90;;;;;;5043425;28;20389;-73
2022/07/22 03:17:55;;;;;;;1999.90;999.90;;;17.70;99.90;;;;;;5054857;28;20079;-73
2022/07/22 03:20:20;;;;;;;1999.90;999.90;;;17.70;99.90;;;;;;5054693;28;20522;-73
2022/07/22 03:22:46;;;;;;;1999.90;999.90;;;17.60;99.90;;;;;;5054610;28;20025;-73
2022/07/22 03:25:11;;;;;;;1999.90;999.90;;;17.60;99.90;;;;;;5054537;28;20029;-73
2022/07/22 03:27:37;;;;;;;1999.90;999.90;;;17.70;99.90;;;;;;5054810;28;20040;-73
2022/07/22 03:30:04;;;;;;;1999.90;999.90;;;17.70;99.90;;;;;;5054695;28;20484;-74
2022/07/22 03:32:30;;;;;;;1999.90;999.90;;;17.70;99.90;;;;;;5028182;28;20029;-73
2022/07/22 03:34:55;;;;;;;1999.90;999.90;;;17.70;99.90;;;;;;5054663;28;20025;-73
2022/07/22 03:37:21;;;;;;;1999.90;999.90;;;17.70;99.90;;;;;;5053323;28;20029;-73
2022/07/22 03:39:47;;;;;;;1999.90;999.90;;;17.70;99.90;;;;;;5050100;28;20031;-73
2022/07/22 03:42:13;;;;;;;1999.90;999.90;;;17.70;99.90;;;;;;5047914;28;20104;-73
2022/07/22 03:44:38;;;;;;;1999.90;999.90;;;17.70;99.90;;;;;;5047522;28;20074;-73
2022/07/22 03:47:04;;;;;;;1999.90;999.90;;;17.70;99.90;;;;;;5054452;28;20028;-73
2022/07/22 03:49:31;;;;;;;1999.90;999.90;;;17.70;99.90;;;;;;5054488;28;20057;-73
2022/07/22 03:51:57;;;;;;;1999.90;999.90;;;17.70;99.90;;;;;;5039028;28;20028;-73
2022/07/22 03:54:22;;;;;;;1999.90;999.90;;;17.70;99.90;;;;;;5053902;28;20025;-73
2022/07/22 03:56:48;;;;;;;1999.90;999.90;;;17.70;99.90;;;;;;5041453;28;20034;-73
2022/07/22 03:59:14;;;;;;;1999.90;999.90;;;17.70;99.90;;;;;;5040580;28;20078;-73
2022/07/22 04:01:40;;;;;;;1999.90;999.90;;;17.70;99.90;;;;;;5046124;28;20435;-73
2022/07/22 04:04:06;;;;;;;1999.90;999.90;;;17.70;99.90;;;;;;5038824;28;20033;-73
2022/07/22 04:06:31;;;;;;;1999.90;999.90;;;17.80;99.90;;;;;;5051877;28;20028;-73
2022/07/22 04:08:57;;;;;;;1999.90;999.90;;;17.90;99.90;;;;;;5040469;28;20057;-73
2022/07/22 04:11:23;;;;;;;1999.90;999.90;;;17.90;99.90;;;;;;5053309;28;20068;-73
2022/07/22 04:13:48;;;;;;;1999.90;999.90;;;18.00;99.90;;;;;;5053921;28;20025;-73
2022/07/22 04:16:14;;;;;;;1999.90;999.90;;;18.00;99.90;;;;;;5041746;28;20024;-73
2022/07/22 04:18:40;;;;;;;1999.90;999.90;;;18.10;99.90;;;;;;5053591;28;20021;-73
2022/07/22 04:21:05;;;;;;;1999.90;999.90;;;18.20;99.90;;;;;;5053737;28;20109;-73
2022/07/22 04:23:31;;;;;;;1999.90;999.90;;;18.20;99.90;;;;;;5053563;28;20076;-73
2022/07/22 04:25:57;;;;;;;1999.90;999.90;;;18.20;99.90;;;;;;5051918;28;20029;-73
2022/07/22 04:28:23;;;;;;;1999.90;999.90;;;18.30;99.90;;;;;;5053573;28;20025;-73
2022/07/22 04:30:48;;;;;;;1999.90;999.90;;;18.30;99.90;;;;;;5053583;28;20033;-73
2022/07/22 04:33:14;;;;;;;1999.90;999.90;;;18.30;99.90;;;;;;5053249;28;20028;-73
2022/07/22 04:35:39;;;;;;;1999.90;999.90;;;18.30;99.90;;;;;;5053430;28;20060;-73
2022/07/22 04:38:05;;;;;;;1999.90;999.90;;;18.40;99.90;;;;;;5050308;28;20476;-73
2022/07/22 04:40:31;;;;;;;1999.90;999.90;;;18.40;99.90;;;;;;5052097;28;20112;-73
2022/07/22 04:42:56;;;;;;;1999.90;999.90;;;18.40;99.90;;;;;;5051271;28;20417;-73
2022/07/22 04:45:22;;;;;;;1999.90;999.90;;;18.40;99.90;;;;;;5052383;28;20496;-73
2022/07/22 04:47:48;;;;;;;1999.90;999.90;;;18.50;99.90;;;;;;5053266;28;20033;-72
2022/07/22 04:50:13;;;;;;;1999.90;999.90;;;18.50;99.90;;;;;;5053151;28;20115;-73
2022/07/22 04:52:39;;;;;;;1999.90;999.90;;;18.50;99.90;;;;;;5045521;28;20032;-73
2022/07/22 04:55:05;;;;;;;1999.90;999.90;;;18.50;99.90;;;;;;5052094;28;20025;-72
2022/07/22 04:57:31;;;;;;;1999.90;999.90;;;18.50;99.90;;;;;;5040835;28;20026;-73
2022/07/22 04:59:56;;;;;;;1999.90;999.90;;;18.40;99.90;;;;;;5051947;28;20029;-74
2022/07/22 05:02:22;;;;;;;1999.90;999.90;;;18.40;99.90;;;;;;5041169;28;20100;-72
2022/07/22 05:04:47;;;;;;;1999.90;999.90;;;18.40;99.90;;;;;;5040976;28;20043;-73
2022/07/22 05:07:13;;;;;;;1999.90;999.90;;;18.50;99.90;;;;;;5052960;28;20028;-73
2022/07/22 05:09:39;;;;;;;1999.90;999.90;;;18.60;99.90;;;;;;5044835;28;20451;-73
2022/07/22 05:12:05;;;;;;;1999.90;999.90;;;18.70;99.90;;;;;;5052840;28;20025;-73
2022/07/22 05:14:30;;;;;;;1999.90;999.90;;;18.80;99.90;;;;;;5049031;28;20053;-73
2022/07/22 05:16:56;;;;;;;1999.90;999.90;;;18.80;99.90;;;;;;5044400;28;20037;-73
2022/07/22 05:19:22;;;;;;;1999.90;999.90;;;18.80;99.90;;;;;;5052718;28;20029;-73
2022/07/22 05:21:47;;;;;;;1999.90;999.90;;;18.80;99.90;;;;;;5052557;28;20056;-73
2022/07/22 05:24:13;;;;;;;1999.90;999.90;;;18.80;99.90;;;;;;5052486;28;20053;-73
2022/07/22 05:26:39;;;;;;;1999.90;999.90;;;18.80;99.90;;;;;;5052510;28;20025;-73
2022/07/22 05:29:05;;;;;;;1999.90;999.90;;;18.70;99.90;;;;;;5052656;28;20159;-73
2022/07/22 05:31:31;;;;;;;1999.90;999.90;;;18.70;99.90;;;;;;5052489;28;20048;-72
2022/07/22 05:33:56;;;;;;;1999.90;999.90;;;18.80;99.90;;;;;;5052394;28;20025;-73
2022/07/22 05:36:22;;;;;;;1999.90;999.90;;;18.80;99.90;;;;;;5041792;28;20379;-73
2022/07/22 05:38:48;;;;;;;1999.90;999.90;;;18.80;99.90;;;;;;5035111;28;20022;-73
2022/07/22 05:41:14;;;;;;;1999.90;999.90;;;18.80;99.90;;;;;;5039594;28;20391;-73
2022/07/22 05:43:39;;;;;;;1999.90;999.90;;;18.90;99.90;;;;;;5047851;28;20572;-72
2022/07/22 05:46:07;;;;;;;1999.90;999.90;;;18.80;99.90;;;;;;5052611;28;20029;-72
2022/07/22 05:48:33;;;;;;;1999.90;999.90;;;18.90;99.90;;;;;;5048921;28;20021;-73
2022/07/22 05:50:59;;;;;;;1999.90;999.90;;;18.80;99.90;;;;;;5038077;28;20512;-73
2022/07/22 05:53:24;;;;;;;1999.90;999.90;;;18.80;99.90;;;;;;5050486;28;20060;-73
2022/07/22 05:55:51;;;;;;;1999.90;999.90;;;18.80;99.90;;;;;;5052155;28;20025;-72
2022/07/22 06:28:53;;;;;;;1999.90;999.90;;;18.70;99.90;;;;;;5065766;28;20397;-72
2022/07/22 06:31:19;;;;;;;1999.90;999.90;;;18.80;99.90;;;;;;5045108;28;20150;-72
2022/07/22 06:33:45;;;;;;;1999.90;999.90;;;18.90;99.90;;;;;;5044080;28;20021;-71
2022/07/22 06:36:11;;;;;;;1999.90;999.90;;;19.00;99.90;;;;;;5046270;28;20472;-73
2022/07/22 06:38:36;;;;;;;1999.90;999.90;;;18.90;99.90;;;;;;5049212;28;20021;-74
2022/07/22 06:41:02;;;;;;;1999.90;999.90;;;18.90;99.90;;;;;;5049337;28;20447;-74
2022/07/22 06:43:29;;;;;;;1999.90;999.90;;;18.80;99.90;;;;;;5049960;28;20013;-74
2022/07/22 06:45:55;;;;;;;1999.90;999.90;;;18.80;99.90;;;;;;5049770;28;20480;-74
2022/07/22 06:48:20;;;;;;;1999.90;999.90;;;18.80;99.90;;;;;;5030262;28;20038;-72
2022/07/22 06:50:46;;;;;;;1999.90;999.90;;;18.80;99.90;;;;;;5049190;28;20033;-73
2022/07/22 06:53:11;;;;;;;1999.90;999.90;;;18.80;99.90;;;;;;5049900;28;20112;-72
2022/07/22 06:55:37;;;;;;;1999.90;999.90;;;18.80;99.90;;;;;;5049494;28;20496;-72
2022/07/22 06:58:03;;;;;;;1999.90;999.90;;;18.80;99.90;;;;;;5040183;28;20025;-73
2022/07/22 07:00:28;;;;;;;1999.90;999.90;;;18.80;99.90;;;;;;5049276;28;20029;-72
2022/07/22 07:02:59;;;;;;;1999.90;999.90;;;18.80;99.90;;;;;;5048492;28;20067;-72
2022/07/22 07:05:27;;;;;;;1999.90;999.90;;;18.80;99.90;;;;;;5046259;28;20025;-72
2022/07/22 07:07:53;;;;;;;1999.90;999.90;;;18.90;99.90;;;;;;5048921;28;20040;-71
2022/07/22 07:10:18;;;;;;;1999.90;999.90;;;18.90;99.90;;;;;;5048950;28;20025;-72
2022/07/22 07:12:44;;;;;;;1999.90;999.90;;;19.00;99.90;;;;;;5047513;28;20044;-72
2022/07/22 07:15:11;;;;;;;1999.90;999.90;;;19.00;99.90;;;;;;5047097;28;20093;-71
2022/07/22 07:17:37;;;;;;;1999.90;999.90;;;19.00;99.90;;;;;;5062239;28;20412;-72
2022/07/22 07:20:04;;;;;;;1999.90;999.90;;;19.10;99.90;;;;;;5047022;28;20029;-72
2022/07/22 07:22:29;;;;;;;1999.90;999.90;;;19.00;99.90;;;;;;5041812;28;20049;-72
2022/07/22 07:24:55;;;;;;;1999.90;999.90;;;19.00;99.90;;;;;;5048303;28;20412;-73
2022/07/22 07:27:20;;;;;;;1999.90;999.90;;;19.00;99.90;;;;;;5048549;28;20527;-72
2022/07/22 07:29:46;;;;;;;1999.90;999.90;;;19.00;99.90;;;;;;5047070;28;20026;-73
2022/07/22 07:32:12;;;;;;;1999.90;999.90;;;19.00;99.90;;;;;;5044997;28;20026;-73
2022/07/22 07:34:38;;;;;;;1999.90;999.90;;;18.90;99.90;;;;;;5033487;28;20079;-73
2022/07/22 07:37:04;;;;;;;1999.90;999.90;;;18.90;99.90;;;;;;5041412;28;20063;-73
2022/07/22 07:39:29;;;;;;;1999.90;999.90;;;18.90;99.90;;;;;;5038358;28;20140;-72
2022/07/22 07:41:55;;;;;;;1999.90;999.90;;;19.00;99.90;;;;;;5035034;28;20025;-72
2022/07/22 07:44:21;;;;;;;1999.90;999.90;;;19.00;99.90;;;;;;5035455;28;20105;-72
2022/07/22 07:46:46;;;;;;;1999.90;999.90;;;19.10;99.90;;;;;;5022398;28;20046;-73
2022/07/22 07:49:12;;;;;;;1999.90;999.90;;;19.10;99.90;;;;;;5017643;28;20049;-73
2022/07/22 07:51:38;;;;;;;1999.90;999.90;;;19.20;99.90;;;;;;5034781;28;20472;-72
2022/07/22 07:54:03;;;;;;;1999.90;999.90;;;19.20;99.90;;;;;;5035235;28;20512;-72
2022/07/22 07:56:29;;;;;;;1999.90;999.90;;;19.30;99.90;;;;;;5018076;28;20040;-72
2022/07/22 07:58:55;;;;;;;1999.90;999.90;;;19.30;99.90;;;;;;5036281;28;20064;-72
2022/07/22 08:01:20;;;;;;;1999.90;999.90;;;19.40;99.90;;;;;;5032053;28;20030;-72
2022/07/22 08:03:46;;;;;;;1999.90;999.90;;;19.40;99.90;;;;;;5022830;28;20503;-72
2022/07/22 08:06:11;;;;;;;1999.90;999.90;;;19.50;99.90;;;;;;5021988;28;20040;-73
2022/07/22 08:08:37;;;;;;;1999.90;999.90;;;19.50;99.90;;;;;;5043823;28;20036;-72
2022/07/22 08:11:03;;;;;;;1999.90;999.90;;;19.50;99.90;;;;;;5030621;28;20381;-72
2022/07/22 08:13:28;;;;;;;1999.90;999.90;;;19.60;99.90;;;;;;5014586;28;20062;-73
2022/07/22 08:15:54;;;;;;;1999.90;999.90;;;19.70;99.90;;;;;;5023714;28;20451;-73
2022/07/22 08:18:21;;;;;;;1999.90;999.90;;;19.70;99.90;;;;;;5014199;28;20036;-72
2022/07/22 08:20:46;;;;;;;1999.90;999.90;;;19.70;99.90;;;;;;5016782;28;20492;-72
2022/07/22 08:23:12;;;;;;;1999.90;999.90;;;19.80;99.90;;;;;;5023652;28;20066;-73
2022/07/22 08:25:38;;;;;;;1999.90;999.90;;;19.90;99.90;;;;;;5026378;28;20033;-73
2022/07/22 08:28:04;;;;;;;1999.90;999.90;;;19.90;99.90;;;;;;5024726;28;20434;-72
2022/07/22 08:30:29;;;;;;;1999.90;999.90;;;20.00;99.90;;;;;;5031506;28;20030;-72
2022/07/22 08:32:56;;;;;;;1999.90;999.90;;;20.10;99.90;;;;;;5015324;28;20096;-72
2022/07/22 08:35:22;;;;;;;1999.90;999.90;;;20.10;99.90;;;;;;5021858;28;20021;-73
2022/07/22 08:37:48;;;;;;;1999.90;999.90;;;20.20;99.90;;;;;;5032519;28;20033;-72
2022/07/22 08:40:17;;;;;;;1999.90;999.90;;;20.30;99.90;;;;;;5022581;28;20143;-73
2022/07/22 08:42:46;;;;;;;1999.90;999.90;;;20.30;99.90;;;;;;5031766;28;20032;-73
2022/07/22 08:45:12;;;;;;;1999.90;999.90;;;20.40;99.90;;;;;;5021447;28;20030;-72
2022/07/22 08:47:38;;;;;;;1999.90;999.90;;;20.60;99.90;;;;;;5022116;28;20095;-73
2022/07/22 08:50:04;;;;;;;1999.90;999.90;;;20.90;99.90;;;;;;5020878;28;20014;-73
2022/07/22 08:52:30;;;;;;;1999.90;999.90;;;20.90;99.90;;;;;;5042584;28;20041;-72
2022/07/22 08:54:56;;;;;;;1999.90;999.90;;;21.00;99.90;;;;;;5033263;28;20034;-73
2022/07/22 08:57:22;;;;;;;1999.90;999.90;;;21.10;99.90;;;;;;5018683;28;20038;-72
2022/07/22 08:59:54;;;;;;;1999.90;999.90;;;21.20;99.90;;;;;;5015723;28;20033;-73
2022/07/22 09:02:21;;;;;;;1999.90;999.90;;;21.20;99.90;;;;;;5021012;28;20037;-73
2022/07/22 09:04:59;;;;;;;1999.90;999.90;;;21.20;99.90;;;;;;5028829;28;20059;-73
2022/07/22 09:07:31;;;;;;;1999.90;999.90;;;21.30;99.90;;;;;;5013653;28;20037;-73
2022/07/22 09:10:00;;;;;;;1999.90;999.90;;;21.30;99.90;;;;;;5013425;28;20029;-72
2022/07/22 09:12:29;;;;;;;1999.90;999.90;;;21.20;99.90;;;;;;5013869;28;20033;-73
2022/07/22 09:14:58;;;;;;;1999.90;999.90;;;21.20;99.90;;;;;;5021943;28;20034;-73
2022/07/22 09:17:31;;;;;;;1999.90;999.90;;;21.20;99.90;;;;;;5022145;28;20030;-72
2022/07/22 09:19:59;;;;;;;1999.90;999.90;;;21.20;99.90;;;;;;5016576;28;20034;-73
2022/07/22 09:22:49;;;;;;;1999.90;999.90;;;21.20;99.90;;;;;;5022982;28;20033;-73
2022/07/22 09:25:21;;;;;;;1999.90;999.90;;;21.20;99.90;;;;;;5031595;28;20091;-72
2022/07/22 09:27:48;;;;;;;1999.90;999.90;;;21.10;99.90;;;;;;5028849;28;20101;-73
2022/07/22 09:30:25;;;;;;;1999.90;999.90;;;21.10;99.90;;;;;;5023658;28;20021;-73
2022/07/22 09:32:53;;;;;;;1999.90;999.90;;;21.00;99.90;;;;;;5032574;28;20037;-73
2022/07/22 09:35:21;;;;;;;1999.90;999.90;;;21.00;99.90;;;;;;5037386;28;20049;-73
2022/07/22 09:37:48;;;;;;;1999.90;999.90;;;21.10;99.90;;;;;;5039293;28;20033;-72
2022/07/22 09:40:15;;;;;;;1999.90;999.90;;;21.00;99.90;;;;;;5042428;28;20543;-72
2022/07/22 09:42:55;;;;;;;1999.90;999.90;;;21.20;99.90;;;;;;5037682;28;20086;-73
2022/07/22 09:45:22;;;;;;;1999.90;999.90;;;21.30;99.90;;;;;;5042270;28;20462;-73
2022/07/22 09:47:49;;;;;;;1999.90;999.90;;;21.60;99.90;;;;;;5039943;28;20112;-73
2022/07/22 09:50:25;;;;;;;1999.90;999.90;;;21.50;99.90;;;;;;5037236;28;20382;-72
2022/07/22 09:52:52;;;;;;;1999.90;999.90;;;21.60;99.90;;;;;;5033889;28;20057;-72
2022/07/22 09:55:20;;;;;;;1999.90;999.90;;;21.70;99.90;;;;;;5036526;28;20024;-73
2022/07/22 09:57:46;;;;;;;1999.90;999.90;;;21.60;99.90;;;;;;5046756;28;20039;-72
2022/07/22 10:00:14;;;;;;;1999.90;999.90;;;21.80;99.90;;;;;;5051812;28;20021;-73
2022/07/22 10:02:47;;;;;;;1999.90;999.90;;;22.00;99.90;;;;;;5041722;28;20444;-71
2022/07/22 10:05:15;;;;;;;1999.90;999.90;;;21.90;99.90;;;;;;5038523;28;20025;-72
2022/07/22 10:07:42;;;;;;;1999.90;999.90;;;22.00;99.90;;;;;;5032723;28;20103;-73
2022/07/22 10:10:10;;;;;;;1999.90;999.90;;;22.10;99.90;;;;;;5048821;28;20116;-73
2022/07/22 10:12:36;;;;;;;1999.90;999.90;;;22.20;99.90;;;;;;5033390;28;20033;-71
2022/07/22 10:15:02;;;;;;;1999.90;999.90;;;22.30;99.90;;;;;;5030003;28;20048;-71
2022/07/22 10:17:29;;;;;;;1999.90;999.90;;;22.50;99.90;;;;;;5032185;28;20047;-71
2022/07/22 10:19:57;;;;;;;1999.90;999.90;;;22.90;99.90;;;;;;5033226;28;20040;-71
2022/07/22 10:22:44;;;;;;;1999.90;999.90;;;22.80;99.90;;;;;;5032987;28;20056;-73
2022/07/22 10:25:12;;;;;;;1999.90;999.90;;;22.80;99.90;;;;;;5043233;28;20037;-73
2022/07/22 10:27:57;;;;;;;1999.90;999.90;;;23.00;99.90;;;;;;5049750;28;20045;-72
2022/07/22 10:30:26;;;;;;;1999.90;999.90;;;23.30;99.90;;;;;;5034962;28;20109;-71
2022/07/22 10:33:03;;;;;;;1999.90;999.90;;;23.10;99.90;;;;;;5044755;28;20423;-73
2022/07/22 10:35:29;;;;;;;1999.90;999.90;;;22.90;99.90;;;;;;5040545;28;20480;-73
2022/07/22 10:37:57;;;;;;;1999.90;999.90;;;23.00;99.90;;;;;;5044140;28;20389;-73
2022/07/22 10:40:29;;;;;;;1999.90;999.90;;;22.80;99.90;;;;;;5031539;28;20443;-73
2022/07/22 10:42:59;;;;;;;1999.90;999.90;;;22.90;99.90;;;;;;5025904;28;20121;-72
2022/07/22 10:45:27;;;;;;;1999.90;999.90;;;22.80;99.90;;;;;;5031959;28;20083;-73
2022/07/22 10:47:57;;;;;;;1999.90;999.90;;;22.30;99.90;;;;;;5047618;28;20024;-71
2022/07/22 10:50:37;;;;;;;1999.90;999.90;;;22.30;99.90;;;;;;5029370;28;20564;-73
2022/07/22 10:53:06;;;;;;;1999.90;999.90;;;22.40;99.90;;;;;;5041430;28;20024;-73
2022/07/22 10:55:32;;;;;;;1999.90;999.90;;;22.40;99.90;;;;;;5033847;28;20539;-72
2022/07/22 10:57:58;;;;;;;1999.90;999.90;;;22.40;99.90;;;;;;5032074;28;20083;-72
2022/07/22 11:00:24;;;;;;;1999.90;999.90;;;22.30;99.90;;;;;;5031456;28;20025;-71
2022/07/22 11:02:50;;;;;;;1999.90;999.90;;;22.40;99.90;;;;;;5035127;28;20507;-72
2022/07/22 11:05:28;;;;;;;1999.90;999.90;;;22.60;99.90;;;;;;5035739;28;20043;-73
2022/07/22 11:07:54;;;;;;;1999.90;999.90;;;22.40;99.90;;;;;;5034411;28;20079;-71
2022/07/22 11:10:20;;;;;;;1999.90;999.90;;;22.20;99.90;;;;;;5031785;28;20029;-71
2022/07/22 11:12:48;;;;;;;1999.90;999.90;;;22.10;99.90;;;;;;5030802;28;20079;-73
2022/07/22 11:15:14;;;;;;;1999.90;999.90;;;22.00;99.90;;;;;;5038655;28;20435;-72
2022/07/22 11:17:40;;;;;;;1999.90;999.90;;;22.00;99.90;;;;;;5035127;28;20091;-71
2022/07/22 11:20:10;;;;;;;1999.90;999.90;;;21.90;99.90;;;;;;5035292;28;20025;-72
2022/07/22 11:22:37;;;;;;;1999.90;999.90;;;21.90;99.90;;;;;;5034318;28;20037;-72
2022/07/22 11:25:08;;;;;;;1999.90;999.90;;;22.00;99.90;;;;;;5036290;28;20036;-72
2022/07/22 11:27:33;;;;;;;1999.90;999.90;;;22.10;99.90;;;;;;5040251;28;20172;-74
2022/07/22 11:29:59;;;;;;;1999.90;999.90;;;22.00;99.90;;;;;;5037225;28;20108;-73
2022/07/22 11:32:30;;;;;;;1999.90;999.90;;;21.90;99.90;;;;;;5034911;28;20091;-72
2022/07/22 11:34:56;;;;;;;1999.90;999.90;;;22.00;99.90;;;;;;5035845;28;20045;-73
2022/07/22 11:37:24;;;;;;;1999.90;999.90;;;22.10;99.90;;;;;;5034259;28;20038;-72
2022/07/22 11:39:50;;;;;;;1999.90;999.90;;;22.20;99.90;;;;;;5033269;28;20025;-72
2022/07/22 11:42:16;;;;;;;1999.90;999.90;;;22.10;99.90;;;;;;5033033;28;20029;-73
2022/07/22 11:44:42;;;;;;;1999.90;999.90;;;21.90;99.90;;;;;;5032293;28;20092;-74
2022/07/22 11:47:10;;;;;;;1999.90;999.90;;;21.80;99.90;;;;;;5037856;28;20443;-73
2022/07/22 11:49:38;;;;;;;1999.90;999.90;;;21.80;99.90;;;;;;5034154;28;20492;-73
2022/07/22 11:52:11;;;;;;;1999.90;999.90;;;21.60;99.90;;;;;;5043279;28;20021;-71
2022/07/22 11:54:39;;;;;;;1999.90;999.90;;;21.70;99.90;;;;;;5034753;28;20072;-73
2022/07/22 11:57:05;;;;;;;1999.90;999.90;;;21.70;99.90;;;;;;5044390;28;20079;-73
2022/07/22 11:59:32;;;;;;;1999.90;999.90;;;21.90;99.90;;;;;;5043024;28;20033;-73
2022/07/22 12:01:58;;;;;;;1999.90;999.90;;;21.80;99.90;;;;;;5037627;28;20033;-73
2022/07/22 12:04:25;;;;;;;1999.90;999.90;;;21.80;99.90;;;;;;5034785;28;20059;-73
2022/07/22 12:06:54;;;;;;;1999.90;999.90;;;21.70;99.90;;;;;;5033752;28;20048;-74
2022/07/22 12:09:21;;;;;;;1999.90;999.90;;;21.60;99.90;;;;;;5048984;28;20052;-72
2022/07/22 12:11:49;;;;;;;1999.90;999.90;;;21.60;99.90;;;;;;5043209;28;20029;-72
2022/07/22 12:14:20;;;;;;;1999.90;999.90;;;21.60;99.90;;;;;;5040581;28;20017;-73
2022/07/22 12:16:58;;;;;;;1999.90;999.90;;;21.50;99.90;;;;;;5045300;28;20162;-73
2022/07/22 12:19:26;;;;;;;1999.90;999.90;;;21.70;99.90;;;;;;5050515;28;20029;-72
2022/07/22 12:21:56;;;;;;;1999.90;999.90;;;21.60;99.90;;;;;;5046704;28;20036;-74
2022/07/22 12:24:31;;;;;;;1999.90;999.90;;;21.50;99.90;;;;;;5044829;28;20104;-72
2022/07/22 12:27:02;;;;;;;1999.90;999.90;;;21.30;99.90;;;;;;5037884;28;20132;-73